sensor_id;sensor_type;location;lat;lon;timestamp;pressure;altitude;pressure_sealevel;temperature
72278;BMP280;61204;49.980;8.358;2024-02-26T00:00:39;98711.78;;;7.47
72278;BMP280;61204;49.980;8.358;2024-02-26T00:03:04;98706.63;;;7.53
72278;BMP280;61204;49.980;8.358;2024-02-26T00:05:32;98699.91;;;7.54
72278;BMP280;61204;49.980;8.358;2024-02-26T00:07:58;98686.84;;;7.52
72278;BMP280;61204;49.980;8.358;2024-02-26T00:10:23;98698.47;;;7.53
72278;BMP280;61204;49.980;8.358;2024-02-26T00:12:51;98706.06;;;7.54
72278;BMP280;61204;49.980;8.358;2024-02-26T00:15:17;98706.88;;;7.57
72278;BMP280;61204;49.980;8.358;2024-02-26T00:17:43;98700.59;;;7.54
72278;BMP280;61204;49.980;8.358;2024-02-26T00:20:10;98700.88;;;7.47
72278;BMP280;61204;49.980;8.358;2024-02-26T00:22:36;98705.34;;;7.54
72278;BMP280;61204;49.980;8.358;2024-02-26T00:25:03;98714.81;;;7.53
72278;BMP280;61204;49.980;8.358;2024-02-26T00:27:29;98705.34;;;7.54
72278;BMP280;61204;49.980;8.358;2024-02-26T00:29:55;98706.88;;;7.57
72278;BMP280;61204;49.980;8.358;2024-02-26T00:32:20;98700.69;;;7.56
72278;BMP280;61204;49.980;8.358;2024-02-26T00:34:46;98692.44;;;7.54
72278;BMP280;61204;49.980;8.358;2024-02-26T00:37:11;98710.53;;;7.61
72278;BMP280;61204;49.980;8.358;2024-02-26T00:39:37;98699.50;;;7.59
72278;BMP280;61204;49.980;8.358;2024-02-26T00:42:03;98689.09;;;7.56
72278;BMP280;61204;49.980;8.358;2024-02-26T00:44:28;98682.84;;;7.53
72278;BMP280;61204;49.980;8.358;2024-02-26T00:46:54;98664.81;;;7.48
72278;BMP280;61204;49.980;8.358;2024-02-26T00:49:19;98682.22;;;7.55
72278;BMP280;61204;49.980;8.358;2024-02-26T00:51:47;98690.00;;;7.60
72278;BMP280;61204;49.980;8.358;2024-02-26T00:54:15;98708.72;;;7.66
72278;BMP280;61204;49.980;8.358;2024-02-26T00:56:40;98706.47;;;7.62
72278;BMP280;61204;49.980;8.358;2024-02-26T00:59:06;98716.91;;;7.66
72278;BMP280;61204;49.980;8.358;2024-02-26T01:01:31;98710.41;;;7.59
72278;BMP280;61204;49.980;8.358;2024-02-26T01:03:57;98715.59;;;7.67
72278;BMP280;61204;49.980;8.358;2024-02-26T01:06:22;98712.53;;;7.61
72278;BMP280;61204;49.980;8.358;2024-02-26T01:08:48;98712.31;;;7.57
72278;BMP280;61204;49.980;8.358;2024-02-26T01:11:14;98718.00;;;7.61
72278;BMP280;61204;49.980;8.358;2024-02-26T01:13:39;98704.03;;;7.55
72278;BMP280;61204;49.980;8.358;2024-02-26T01:16:05;98702.34;;;7.61
72278;BMP280;61204;49.980;8.358;2024-02-26T01:18:31;98717.25;;;7.72
72278;BMP280;61204;49.980;8.358;2024-02-26T01:20:58;98709.16;;;7.74
72278;BMP280;61204;49.980;8.358;2024-02-26T01:23:24;98705.88;;;7.64
72278;BMP280;61204;49.980;8.358;2024-02-26T01:25:49;98700.41;;;7.64
72278;BMP280;61204;49.980;8.358;2024-02-26T01:28:15;98695.56;;;7.62
72278;BMP280;61204;49.980;8.358;2024-02-26T01:30:41;98706.72;;;7.67
72278;BMP280;61204;49.980;8.358;2024-02-26T01:33:07;98710.03;;;7.65
72278;BMP280;61204;49.980;8.358;2024-02-26T01:35:35;98706.84;;;7.69
72278;BMP280;61204;49.980;8.358;2024-02-26T01:38:01;98717.63;;;7.67
72278;BMP280;61204;49.980;8.358;2024-02-26T01:40:27;98714.66;;;7.62
72278;BMP280;61204;49.980;8.358;2024-02-26T01:42:53;98713.69;;;7.70
72278;BMP280;61204;49.980;8.358;2024-02-26T01:45:19;98703.28;;;7.66
72278;BMP280;61204;49.980;8.358;2024-02-26T01:47:50;98713.00;;;7.69
72278;BMP280;61204;49.980;8.358;2024-02-26T01:50:18;98710.97;;;7.70
72278;BMP280;61204;49.980;8.358;2024-02-26T01:52:46;98709.44;;;7.67
72278;BMP280;61204;49.980;8.358;2024-02-26T01:55:15;98714.88;;;7.67
72278;BMP280;61204;49.980;8.358;2024-02-26T01:57:45;98718.94;;;7.66
72278;BMP280;61204;49.980;8.358;2024-02-26T02:00:14;98719.75;;;7.68
72278;BMP280;61204;49.980;8.358;2024-02-26T02:02:42;98711.78;;;7.72
72278;BMP280;61204;49.980;8.358;2024-02-26T02:05:11;98731.59;;;7.73
72278;BMP280;61204;49.980;8.358;2024-02-26T02:07:40;98726.22;;;7.75
72278;BMP280;61204;49.980;8.358;2024-02-26T02:10:06;98728.84;;;7.73
72278;BMP280;61204;49.980;8.358;2024-02-26T02:12:33;98737.53;;;7.69
72278;BMP280;61204;49.980;8.358;2024-02-26T02:15:00;98738.94;;;7.70
72278;BMP280;61204;49.980;8.358;2024-02-26T02:17:26;98735.06;;;7.61
72278;BMP280;61204;49.980;8.358;2024-02-26T02:19:53;98733.97;;;7.67
72278;BMP280;61204;49.980;8.358;2024-02-26T02:22:19;98733.88;;;7.64
72278;BMP280;61204;49.980;8.358;2024-02-26T02:24:45;98738.88;;;7.56
72278;BMP280;61204;49.980;8.358;2024-02-26T02:27:11;98754.38;;;7.66
72278;BMP280;61204;49.980;8.358;2024-02-26T02:29:37;98747.25;;;7.60
72278;BMP280;61204;49.980;8.358;2024-02-26T02:32:03;98760.00;;;7.56
72278;BMP280;61204;49.980;8.358;2024-02-26T02:34:31;98754.03;;;7.59
72278;BMP280;61204;49.980;8.358;2024-02-26T02:36:59;98759.84;;;7.66
72278;BMP280;61204;49.980;8.358;2024-02-26T02:39:24;98753.34;;;7.59
72278;BMP280;61204;49.980;8.358;2024-02-26T02:41:50;98752.50;;;7.56
72278;BMP280;61204;49.980;8.358;2024-02-26T02:44:15;98759.28;;;7.55
72278;BMP280;61204;49.980;8.358;2024-02-26T02:46:41;98756.56;;;7.55
72278;BMP280;61204;49.980;8.358;2024-02-26T02:49:10;98762.84;;;7.58
72278;BMP280;61204;49.980;8.358;2024-02-26T02:51:39;98759.19;;;7.53
72278;BMP280;61204;49.980;8.358;2024-02-26T02:54:04;98759.00;;;7.63
72278;BMP280;61204;49.980;8.358;2024-02-26T02:56:30;98752.13;;;7.62
72278;BMP280;61204;49.980;8.358;2024-02-26T02:58:56;98752.06;;;7.48
72278;BMP280;61204;49.980;8.358;2024-02-26T03:01:21;98748.28;;;7.53
72278;BMP280;61204;49.980;8.358;2024-02-26T03:03:51;98761.91;;;7.53
72278;BMP280;61204;49.980;8.358;2024-02-26T03:06:17;98764.03;;;7.55
72278;BMP280;61204;49.980;8.358;2024-02-26T03:08:42;98762.84;;;7.58
72278;BMP280;61204;49.980;8.358;2024-02-26T03:11:13;98757.81;;;7.66
72278;BMP280;61204;49.980;8.358;2024-02-26T03:13:42;98767.59;;;7.57
72278;BMP280;61204;49.980;8.358;2024-02-26T03:16:08;98766.84;;;7.57
72278;BMP280;61204;49.980;8.358;2024-02-26T03:18:34;98772.06;;;7.64
72278;BMP280;61204;49.980;8.358;2024-02-26T03:20:59;98778.97;;;7.54
72278;BMP280;61204;49.980;8.358;2024-02-26T03:23:25;98789.31;;;7.44
72278;BMP280;61204;49.980;8.358;2024-02-26T03:25:50;98783.84;;;7.44
72278;BMP280;61204;49.980;8.358;2024-02-26T03:28:16;98783.72;;;7.53
72278;BMP280;61204;49.980;8.358;2024-02-26T03:30:42;98782.28;;;7.52
72278;BMP280;61204;49.980;8.358;2024-02-26T03:33:10;98777.69;;;7.43
72278;BMP280;61204;49.980;8.358;2024-02-26T03:35:35;98785.47;;;7.23
72278;BMP280;61204;49.980;8.358;2024-02-26T03:38:01;98781.09;;;7.06
72278;BMP280;61204;49.980;8.358;2024-02-26T03:40:27;98776.94;;;7.05
72278;BMP280;61204;49.980;8.358;2024-02-26T03:42:53;98769.81;;;6.89
72278;BMP280;61204;49.980;8.358;2024-02-26T03:45:19;98774.47;;;6.74
72278;BMP280;61204;49.980;8.358;2024-02-26T03:47:47;98769.84;;;6.53
72278;BMP280;61204;49.980;8.358;2024-02-26T03:50:12;98758.69;;;6.26
72278;BMP280;61204;49.980;8.358;2024-02-26T03:52:38;98756.50;;;6.13
72278;BMP280;61204;49.980;8.358;2024-02-26T03:55:04;98752.53;;;6.25
72278;BMP280;61204;49.980;8.358;2024-02-26T03:57:30;98748.59;;;6.17
72278;BMP280;61204;49.980;8.358;2024-02-26T03:59:59;98737.81;;;6.07
72278;BMP280;61204;49.980;8.358;2024-02-26T04:02:24;98723.16;;;6.00
72278;BMP280;61204;49.980;8.358;2024-02-26T04:04:50;98724.53;;;5.90
72278;BMP280;61204;49.980;8.358;2024-02-26T04:07:16;98728.22;;;5.94
72278;BMP280;61204;49.980;8.358;2024-02-26T04:09:41;98722.97;;;5.87
72278;BMP280;61204;49.980;8.358;2024-02-26T04:12:08;98724.44;;;5.88
72278;BMP280;61204;49.980;8.358;2024-02-26T04:14:35;98711.84;;;5.83
72278;BMP280;61204;49.980;8.358;2024-02-26T04:17:03;98702.97;;;5.82
72278;BMP280;61204;49.980;8.358;2024-02-26T04:19:29;98704.75;;;5.77
72278;BMP280;61204;49.980;8.358;2024-02-26T04:21:54;98689.53;;;5.84
72278;BMP280;61204;49.980;8.358;2024-02-26T04:24:20;98691.91;;;5.90
72278;BMP280;61204;49.980;8.358;2024-02-26T04:26:48;98697.91;;;5.76
72278;BMP280;61204;49.980;8.358;2024-02-26T04:29:17;98689.75;;;5.76
72278;BMP280;61204;49.980;8.358;2024-02-26T04:31:42;98684.38;;;5.67
72278;BMP280;61204;49.980;8.358;2024-02-26T04:34:08;98690.66;;;5.69
72278;BMP280;61204;49.980;8.358;2024-02-26T04:36:34;98682.75;;;5.73
72278;BMP280;61204;49.980;8.358;2024-02-26T04:38:59;98689.09;;;5.66
72278;BMP280;61204;49.980;8.358;2024-02-26T04:41:25;98687.81;;;5.67
72278;BMP280;61204;49.980;8.358;2024-02-26T04:43:50;98675.50;;;5.66
72278;BMP280;61204;49.980;8.358;2024-02-26T04:46:16;98673.84;;;5.61
72278;BMP280;61204;49.980;8.358;2024-02-26T04:48:41;98672.53;;;5.62
72278;BMP280;61204;49.980;8.358;2024-02-26T04:51:07;98681.88;;;5.59
72278;BMP280;61204;49.980;8.358;2024-02-26T04:53:33;98679.88;;;5.60
72278;BMP280;61204;49.980;8.358;2024-02-26T04:55:58;98674.56;;;5.62
72278;BMP280;61204;49.980;8.358;2024-02-26T04:58:24;98675.03;;;5.58
72278;BMP280;61204;49.980;8.358;2024-02-26T05:00:49;98676.44;;;5.59
72278;BMP280;61204;49.980;8.358;2024-02-26T05:03:15;98673.38;;;5.65
72278;BMP280;61204;49.980;8.358;2024-02-26T05:05:46;98675.66;;;5.68
72278;BMP280;61204;49.980;8.358;2024-02-26T05:08:12;98676.69;;;5.63
72278;BMP280;61204;49.980;8.358;2024-02-26T05:10:38;98669.13;;;5.62
72278;BMP280;61204;49.980;8.358;2024-02-26T05:13:08;98667.72;;;5.61
72278;BMP280;61204;49.980;8.358;2024-02-26T05:15:34;98667.72;;;5.61
72278;BMP280;61204;49.980;8.358;2024-02-26T05:18:01;98667.25;;;5.64
72278;BMP280;61204;49.980;8.358;2024-02-26T05:20:28;98670.09;;;5.66
72278;BMP280;61204;49.980;8.358;2024-02-26T05:22:54;98660.25;;;5.61
72278;BMP280;61204;49.980;8.358;2024-02-26T05:25:19;98661.66;;;5.62
72278;BMP280;61204;49.980;8.358;2024-02-26T05:27:45;98667.81;;;5.63
72278;BMP280;61204;49.980;8.358;2024-02-26T05:30:11;98658.34;;;5.64
72278;BMP280;61204;49.980;8.358;2024-02-26T05:32:39;98660.38;;;5.63
72278;BMP280;61204;49.980;8.358;2024-02-26T05:35:06;98662.88;;;5.59
72278;BMP280;61204;49.980;8.358;2024-02-26T05:37:32;98663.69;;;5.62
72278;BMP280;61204;49.980;8.358;2024-02-26T05:39:59;98661.31;;;5.56
72278;BMP280;61204;49.980;8.358;2024-02-26T05:42:24;98661.31;;;5.56
72278;BMP280;61204;49.980;8.358;2024-02-26T05:44:50;98655.63;;;5.52
72278;BMP280;61204;49.980;8.358;2024-02-26T05:47:17;98658.91;;;5.50
72278;BMP280;61204;49.980;8.358;2024-02-26T05:49:43;98661.50;;;5.48
72278;BMP280;61204;49.980;8.358;2024-02-26T05:52:12;98666.13;;;5.46
72278;BMP280;61204;49.980;8.358;2024-02-26T05:54:37;98661.16;;;5.42
72278;BMP280;61204;49.980;8.358;2024-02-26T05:57:03;98661.97;;;5.45
72278;BMP280;61204;49.980;8.358;2024-02-26T05:59:31;98663.72;;;5.40
72278;BMP280;61204;49.980;8.358;2024-02-26T06:01:59;98665.88;;;5.42
72278;BMP280;61204;49.980;8.358;2024-02-26T06:04:24;98670.00;;;5.43
72278;BMP280;61204;49.980;8.358;2024-02-26T06:06:50;98669.44;;;5.44
72278;BMP280;61204;49.980;8.358;2024-02-26T06:09:18;98667.88;;;5.41
72278;BMP280;61204;49.980;8.358;2024-02-26T06:11:43;98680.41;;;5.46
72278;BMP280;61204;49.980;8.358;2024-02-26T06:14:09;98684.53;;;5.47
72278;BMP280;61204;49.980;8.358;2024-02-26T06:16:35;98684.22;;;5.53
72278;BMP280;61204;49.980;8.358;2024-02-26T06:19:00;98691.53;;;5.50
72278;BMP280;61204;49.980;8.358;2024-02-26T06:21:26;98692.84;;;5.49
72278;BMP280;61204;49.980;8.358;2024-02-26T06:23:52;98696.25;;;5.50
72278;BMP280;61204;49.980;8.358;2024-02-26T06:26:17;98693.09;;;5.53
72278;BMP280;61204;49.980;8.358;2024-02-26T06:28:43;98698.38;;;5.51
72278;BMP280;61204;49.980;8.358;2024-02-26T06:31:09;98704.97;;;5.48
72278;BMP280;61204;49.980;8.358;2024-02-26T06:33:35;98708.44;;;5.49
72278;BMP280;61204;49.980;8.358;2024-02-26T06:36:01;98712.69;;;5.52
72278;BMP280;61204;49.980;8.358;2024-02-26T06:38:26;98720.72;;;5.50
72278;BMP280;61204;49.980;8.358;2024-02-26T06:40:52;98713.31;;;5.62
72278;BMP280;61204;49.980;8.358;2024-02-26T06:43:18;98728.47;;;5.65
72278;BMP280;61204;49.980;8.358;2024-02-26T06:45:43;98729.19;;;5.66
72278;BMP280;61204;49.980;8.358;2024-02-26T06:48:09;98729.63;;;5.62
72278;BMP280;61204;49.980;8.358;2024-02-26T06:50:34;98735.22;;;5.64
72278;BMP280;61204;49.980;8.358;2024-02-26T06:53:00;98736.97;;;5.60
72278;BMP280;61204;49.980;8.358;2024-02-26T06:55:28;98728.09;;;5.59
72278;BMP280;61204;49.980;8.358;2024-02-26T06:57:53;98747.94;;;5.62
72278;BMP280;61204;49.980;8.358;2024-02-26T07:00:19;98743.75;;;5.70
72278;BMP280;61204;49.980;8.358;2024-02-26T07:02:45;98755.19;;;5.69
72278;BMP280;61204;49.980;8.358;2024-02-26T07:05:11;98763.63;;;5.73
72278;BMP280;61204;49.980;8.358;2024-02-26T07:07:37;98764.56;;;5.77
72278;BMP280;61204;49.980;8.358;2024-02-26T07:10:03;98749.09;;;5.80
72278;BMP280;61204;49.980;8.358;2024-02-26T07:12:30;98768.47;;;5.74
72278;BMP280;61204;49.980;8.358;2024-02-26T07:14:56;98772.09;;;5.67
72278;BMP280;61204;49.980;8.358;2024-02-26T07:17:22;98766.84;;;5.60
72278;BMP280;61204;49.980;8.358;2024-02-26T07:19:47;98776.56;;;5.63
72278;BMP280;61204;49.980;8.358;2024-02-26T07:22:15;98785.41;;;5.63
72278;BMP280;61204;49.980;8.358;2024-02-26T07:24:41;98778.19;;;5.56
72278;BMP280;61204;49.980;8.358;2024-02-26T07:27:06;98774.03;;;5.55
72278;BMP280;61204;49.980;8.358;2024-02-26T07:29:34;98779.22;;;5.51
72278;BMP280;61204;49.980;8.358;2024-02-26T07:31:59;98776.38;;;5.49
72278;BMP280;61204;49.980;8.358;2024-02-26T07:34:25;98781.81;;;5.49
72278;BMP280;61204;49.980;8.358;2024-02-26T07:36:54;98785.56;;;5.44
72278;BMP280;61204;49.980;8.358;2024-02-26T07:39:21;98774.69;;;5.44
72278;BMP280;61204;49.980;8.358;2024-02-26T07:41:49;98789.97;;;5.49
72278;BMP280;61204;49.980;8.358;2024-02-26T07:44:18;98792.69;;;5.49
72278;BMP280;61204;49.980;8.358;2024-02-26T07:46:44;98784.34;;;5.57
72278;BMP280;61204;49.980;8.358;2024-02-26T07:49:12;98790.63;;;5.59
72278;BMP280;61204;49.980;8.358;2024-02-26T07:51:40;98787.06;;;5.57
72278;BMP280;61204;49.980;8.358;2024-02-26T07:54:05;98788.66;;;5.50
72278;BMP280;61204;49.980;8.358;2024-02-26T07:56:31;98777.53;;;5.46
72278;BMP280;61204;49.980;8.358;2024-02-26T07:58:57;98777.53;;;5.46
72278;BMP280;61204;49.980;8.358;2024-02-26T08:01:22;98805.44;;;5.46
72278;BMP280;61204;49.980;8.358;2024-02-26T08:03:48;98802.69;;;5.46
72278;BMP280;61204;49.980;8.358;2024-02-26T08:06:14;98809.00;;;5.49
72278;BMP280;61204;49.980;8.358;2024-02-26T08:08:41;98819.59;;;5.45
72278;BMP280;61204;49.980;8.358;2024-02-26T08:11:07;98814.91;;;5.45
72278;BMP280;61204;49.980;8.358;2024-02-26T08:13:33;98818.56;;;5.50
72278;BMP280;61204;49.980;8.358;2024-02-26T08:15:59;98827.75;;;5.45
72278;BMP280;61204;49.980;8.358;2024-02-26T08:18:24;98821.84;;;5.48
72278;BMP280;61204;49.980;8.358;2024-02-26T08:20:50;98823.16;;;5.47
72278;BMP280;61204;49.980;8.358;2024-02-26T08:23:16;98811.44;;;5.45
72278;BMP280;61204;49.980;8.358;2024-02-26T08:25:42;98812.03;;;5.43
72278;BMP280;61204;49.980;8.358;2024-02-26T08:28:08;98817.00;;;5.47
72278;BMP280;61204;49.980;8.358;2024-02-26T08:30:36;98817.53;;;5.55
72278;BMP280;61204;49.980;8.358;2024-02-26T08:33:02;98818.69;;;5.52
72278;BMP280;61204;49.980;8.358;2024-02-26T08:35:27;98831.00;;;5.53
72278;BMP280;61204;49.980;8.358;2024-02-26T08:37:53;98828.91;;;5.63
72278;BMP280;61204;49.980;8.358;2024-02-26T08:40:18;98822.19;;;5.64
72278;BMP280;61204;49.980;8.358;2024-02-26T08:42:47;98812.88;;;5.67
72278;BMP280;61204;49.980;8.358;2024-02-26T08:45:12;98830.75;;;5.70
72278;BMP280;61204;49.980;8.358;2024-02-26T08:47:38;98826.88;;;5.73
72278;BMP280;61204;49.980;8.358;2024-02-26T08:50:04;98836.75;;;5.90
72278;BMP280;61204;49.980;8.358;2024-02-26T08:52:31;98842.97;;;5.81
72278;BMP280;61204;49.980;8.358;2024-02-26T08:54:58;98837.75;;;5.73
72278;BMP280;61204;49.980;8.358;2024-02-26T08:57:24;98840.38;;;5.83
72278;BMP280;61204;49.980;8.358;2024-02-26T08:59:52;98848.03;;;5.75
72278;BMP280;61204;49.980;8.358;2024-02-26T09:02:17;98850.47;;;5.71
72278;BMP280;61204;49.980;8.358;2024-02-26T09:04:45;98844.22;;;5.68
72278;BMP280;61204;49.980;8.358;2024-02-26T09:07:10;98844.47;;;5.72
72278;BMP280;61204;49.980;8.358;2024-02-26T09:09:36;98839.03;;;5.72
72278;BMP280;61204;49.980;8.358;2024-02-26T09:12:02;98856.72;;;5.83
72278;BMP280;61204;49.980;8.358;2024-02-26T09:14:28;98848.16;;;5.77
72278;BMP280;61204;49.980;8.358;2024-02-26T09:16:55;98825.56;;;5.74
72278;BMP280;61204;49.980;8.358;2024-02-26T09:19:25;98839.09;;;5.84
72278;BMP280;61204;49.980;8.358;2024-02-26T09:21:52;98811.69;;;5.92
72278;BMP280;61204;49.980;8.358;2024-02-26T09:24:22;98825.22;;;6.01
72278;BMP280;61204;49.980;8.358;2024-02-26T09:26:51;98828.19;;;6.05
72278;BMP280;61204;49.980;8.358;2024-02-26T09:29:17;98837.44;;;6.12
72278;BMP280;61204;49.980;8.358;2024-02-26T09:31:43;98841.47;;;6.23
72278;BMP280;61204;49.980;8.358;2024-02-26T09:34:12;98853.03;;;6.33
72278;BMP280;61204;49.980;8.358;2024-02-26T09:36:37;98855.38;;;6.39
72278;BMP280;61204;49.980;8.358;2024-02-26T09:39:03;98862.50;;;6.44
72278;BMP280;61204;49.980;8.358;2024-02-26T09:41:29;98865.69;;;6.40
72278;BMP280;61204;49.980;8.358;2024-02-26T09:43:59;98864.97;;;6.40
72278;BMP280;61204;49.980;8.358;2024-02-26T09:46:31;98870.22;;;6.47
72278;BMP280;61204;49.980;8.358;2024-02-26T09:48:57;98867.38;;;6.57
72278;BMP280;61204;49.980;8.358;2024-02-26T09:51:23;98874.41;;;6.60
72278;BMP280;61204;49.980;8.358;2024-02-26T09:53:51;98875.28;;;6.86
72278;BMP280;61204;49.980;8.358;2024-02-26T09:56:18;98889.81;;;7.02
72278;BMP280;61204;49.980;8.358;2024-02-26T09:58:45;98887.69;;;7.13
72278;BMP280;61204;49.980;8.358;2024-02-26T10:01:17;98906.66;;;7.22
72278;BMP280;61204;49.980;8.358;2024-02-26T10:03:43;98899.41;;;7.03
72278;BMP280;61204;49.980;8.358;2024-02-26T10:06:13;98893.38;;;6.93
72278;BMP280;61204;49.980;8.358;2024-02-26T10:08:39;98895.97;;;7.15
72278;BMP280;61204;49.980;8.358;2024-02-26T10:11:07;98893.16;;;7.01
72278;BMP280;61204;49.980;8.358;2024-02-26T10:13:34;98906.78;;;7.01
72278;BMP280;61204;49.980;8.358;2024-02-26T10:16:01;98907.03;;;7.05
72278;BMP280;61204;49.980;8.358;2024-02-26T10:18:53;98909.03;;;7.28
72278;BMP280;61204;49.980;8.358;2024-02-26T10:21:20;98917.00;;;7.35
72278;BMP280;61204;49.980;8.358;2024-02-26T10:23:48;98922.19;;;7.43
72278;BMP280;61204;49.980;8.358;2024-02-26T10:26:17;98928.56;;;7.36
72278;BMP280;61204;49.980;8.358;2024-02-26T10:28:43;98928.72;;;7.50
72278;BMP280;61204;49.980;8.358;2024-02-26T10:31:11;98921.72;;;7.47
72278;BMP280;61204;49.980;8.358;2024-02-26T10:33:39;98927.16;;;7.70
72278;BMP280;61204;49.980;8.358;2024-02-26T10:36:07;98936.69;;;7.83
72278;BMP280;61204;49.980;8.358;2024-02-26T10:38:37;98940.38;;;7.99
72278;BMP280;61204;49.980;8.358;2024-02-26T10:41:04;98951.88;;;8.35
72278;BMP280;61204;49.980;8.358;2024-02-26T10:43:31;98958.09;;;8.49
72278;BMP280;61204;49.980;8.358;2024-02-26T10:45:57;98973.03;;;8.60
72278;BMP280;61204;49.980;8.358;2024-02-26T10:48:23;98972.25;;;8.08
72278;BMP280;61204;49.980;8.358;2024-02-26T10:50:49;98969.22;;;7.90
72278;BMP280;61204;49.980;8.358;2024-02-26T10:53:28;98970.44;;;8.25
72278;BMP280;61204;49.980;8.358;2024-02-26T10:56:02;98975.09;;;8.22
72278;BMP280;61204;49.980;8.358;2024-02-26T10:58:33;98969.06;;;8.12
72278;BMP280;61204;49.980;8.358;2024-02-26T11:01:01;98976.31;;;8.44
72278;BMP280;61204;49.980;8.358;2024-02-26T11:03:31;98972.19;;;8.32
72278;BMP280;61204;49.980;8.358;2024-02-26T11:06:01;98973.38;;;8.29
72278;BMP280;61204;49.980;8.358;2024-02-26T11:08:30;98975.13;;;8.36
72278;BMP280;61204;49.980;8.358;2024-02-26T11:10:57;98985.09;;;8.43
72278;BMP280;61204;49.980;8.358;2024-02-26T11:13:27;98998.91;;;8.33
72278;BMP280;61204;49.980;8.358;2024-02-26T11:15:56;98992.00;;;8.32
72278;BMP280;61204;49.980;8.358;2024-02-26T11:18:23;98987.09;;;8.42
72278;BMP280;61204;49.980;8.358;2024-02-26T11:20:54;98991.03;;;8.90
72278;BMP280;61204;49.980;8.358;2024-02-26T11:23:22;98994.56;;;9.32
72278;BMP280;61204;49.980;8.358;2024-02-26T11:25:53;99022.91;;;9.25
72278;BMP280;61204;49.980;8.358;2024-02-26T11:28:28;99014.19;;;9.15
72278;BMP280;61204;49.980;8.358;2024-02-26T11:30:59;99018.00;;;9.10
72278;BMP280;61204;49.980;8.358;2024-02-26T11:33:28;99015.22;;;9.21
72278;BMP280;61204;49.980;8.358;2024-02-26T11:35:55;99005.09;;;9.24
72278;BMP280;61204;49.980;8.358;2024-02-26T11:38:21;99015.75;;;9.32
72278;BMP280;61204;49.980;8.358;2024-02-26T11:40:52;99021.25;;;9.06
72278;BMP280;61204;49.980;8.358;2024-02-26T11:43:53;99019.00;;;9.03
72278;BMP280;61204;49.980;8.358;2024-02-26T11:46:39;99010.34;;;9.20
72278;BMP280;61204;49.980;8.358;2024-02-26T11:51:57;99004.81;;;9.32
72278;BMP280;61204;49.980;8.358;2024-02-26T12:00:15;99022.00;;;10.46
72278;BMP280;61204;49.980;8.358;2024-02-26T12:02:52;99024.44;;;10.70
72278;BMP280;61204;49.980;8.358;2024-02-26T12:05:27;99029.34;;;10.71
72278;BMP280;61204;49.980;8.358;2024-02-26T12:08:08;99034.13;;;10.57
72278;BMP280;61204;49.980;8.358;2024-02-26T12:10:40;99036.28;;;10.15
72278;BMP280;61204;49.980;8.358;2024-02-26T12:13:11;99035.78;;;9.91
72278;BMP280;61204;49.980;8.358;2024-02-26T12:15:39;99040.91;;;9.97
72278;BMP280;61204;49.980;8.358;2024-02-26T12:18:19;99040.94;;;10.26
72278;BMP280;61204;49.980;8.358;2024-02-26T12:20:58;99049.41;;;10.03
72278;BMP280;61204;49.980;8.358;2024-02-26T12:23:27;99041.19;;;10.03
72278;BMP280;61204;49.980;8.358;2024-02-26T12:25:54;99053.63;;;9.65
72278;BMP280;61204;49.980;8.358;2024-02-26T12:28:28;99039.31;;;9.25
72278;BMP280;61204;49.980;8.358;2024-02-26T12:30:55;99047.84;;;9.31
72278;BMP280;61204;49.980;8.358;2024-02-26T12:33:25;99054.97;;;9.64
72278;BMP280;61204;49.980;8.358;2024-02-26T12:35:53;99050.31;;;9.94
72278;BMP280;61204;49.980;8.358;2024-02-26T12:38:18;99057.91;;;9.82
72278;BMP280;61204;49.980;8.358;2024-02-26T12:40:45;99053.22;;;9.98
72278;BMP280;61204;49.980;8.358;2024-02-26T12:43:13;99062.22;;;10.28
72278;BMP280;61204;49.980;8.358;2024-02-26T12:45:40;99060.38;;;10.32
72278;BMP280;61204;49.980;8.358;2024-02-26T12:48:07;99067.44;;;10.51
72278;BMP280;61204;49.980;8.358;2024-02-26T12:50:34;99074.56;;;10.56
72278;BMP280;61204;49.980;8.358;2024-02-26T12:52:59;99064.34;;;10.73
72278;BMP280;61204;49.980;8.358;2024-02-26T12:55:26;99075.44;;;10.61
72278;BMP280;61204;49.980;8.358;2024-02-26T12:57:52;99076.44;;;10.68
72278;BMP280;61204;49.980;8.358;2024-02-26T13:00:22;99069.34;;;10.19
72278;BMP280;61204;49.980;8.358;2024-02-26T13:02:51;99071.88;;;10.15
72278;BMP280;61204;49.980;8.358;2024-02-26T13:05:21;99069.41;;;10.35
72278;BMP280;61204;49.980;8.358;2024-02-26T13:07:51;99072.38;;;10.39
72278;BMP280;61204;49.980;8.358;2024-02-26T13:10:18;99076.81;;;10.46
72278;BMP280;61204;49.980;8.358;2024-02-26T13:12:46;99080.63;;;10.84
72278;BMP280;61204;49.980;8.358;2024-02-26T13:15:20;99086.06;;;11.14
72278;BMP280;61204;49.980;8.358;2024-02-26T13:17:47;99088.31;;;10.72
72278;BMP280;61204;49.980;8.358;2024-02-26T13:20:29;99088.38;;;10.74
72278;BMP280;61204;49.980;8.358;2024-02-26T13:23:06;99086.81;;;10.55
72278;BMP280;61204;49.980;8.358;2024-02-26T13:25:36;99096.31;;;10.39
72278;BMP280;61204;49.980;8.358;2024-02-26T13:28:24;99101.97;;;10.43
72278;BMP280;61204;49.980;8.358;2024-02-26T13:30:52;99104.00;;;10.42
72278;BMP280;61204;49.980;8.358;2024-02-26T13:33:23;99105.50;;;10.88
72278;BMP280;61204;49.980;8.358;2024-02-26T13:35:51;99107.63;;;10.60
72278;BMP280;61204;49.980;8.358;2024-02-26T13:38:20;99116.97;;;10.85
72278;BMP280;61204;49.980;8.358;2024-02-26T13:40:46;99111.75;;;10.75
72278;BMP280;61204;49.980;8.358;2024-02-26T13:43:12;99121.81;;;10.71
72278;BMP280;61204;49.980;8.358;2024-02-26T13:45:38;99129.84;;;10.96
72278;BMP280;61204;49.980;8.358;2024-02-26T13:48:08;99127.41;;;11.18
72278;BMP280;61204;49.980;8.358;2024-02-26T13:50:41;99124.69;;;10.88
72278;BMP280;61204;49.980;8.358;2024-02-26T13:53:08;99126.34;;;10.80
72278;BMP280;61204;49.980;8.358;2024-02-26T13:55:34;99121.91;;;10.59
72278;BMP280;61204;49.980;8.358;2024-02-26T13:58:01;99138.25;;;10.57
72278;BMP280;61204;49.980;8.358;2024-02-26T14:00:28;99122.16;;;10.49
72278;BMP280;61204;49.980;8.358;2024-02-26T14:02:58;99126.47;;;10.68
72278;BMP280;61204;49.980;8.358;2024-02-26T14:05:27;99127.94;;;10.85
72278;BMP280;61204;49.980;8.358;2024-02-26T14:07:55;99130.25;;;10.90
72278;BMP280;61204;49.980;8.358;2024-02-26T14:10:20;99122.22;;;10.65
72278;BMP280;61204;49.980;8.358;2024-02-26T14:12:51;99117.31;;;10.34
72278;BMP280;61204;49.980;8.358;2024-02-26T14:15:17;99110.31;;;10.31
72278;BMP280;61204;49.980;8.358;2024-02-26T14:17:45;99113.78;;;10.31
72278;BMP280;61204;49.980;8.358;2024-02-26T14:20:11;99110.31;;;10.31
72278;BMP280;61204;49.980;8.358;2024-02-26T14:22:39;99109.81;;;10.21
72278;BMP280;61204;49.980;8.358;2024-02-26T14:25:05;99111.03;;;10.18
72278;BMP280;61204;49.980;8.358;2024-02-26T14:27:34;99122.91;;;10.22